createdAt,value
2022-12-28T00:00:33.672Z,21.77
2022-12-28T00:03:00.082Z,17.23
2022-12-28T00:05:26.434Z,21.08
2022-12-28T00:07:52.820Z,22.98
2022-12-28T00:10:19.119Z,19.05
2022-12-28T00:13:05.418Z,20.60
2022-12-28T00:15:31.715Z,25.08
2022-12-28T00:17:58.031Z,15.80
2022-12-28T00:20:24.366Z,16.48
2022-12-28T00:22:50.634Z,20.92
2022-12-28T00:25:16.967Z,20.35
2022-12-28T00:27:43.262Z,18.80
2022-12-28T00:30:09.993Z,19.45
2022-12-28T00:32:36.327Z,18.25
2022-12-28T00:35:02.679Z,18.30
2022-12-28T00:37:29.013Z,20.00
2022-12-28T00:39:55.415Z,25.50
2022-12-28T00:42:21.718Z,22.75
2022-12-28T00:44:48.065Z,19.70
2022-12-28T00:47:15.928Z,17.63
2022-12-28T00:49:42.205Z,18.30
2022-12-28T00:52:08.530Z,20.88
2022-12-28T00:54:34.892Z,18.40
2022-12-28T00:57:02.384Z,19.67
2022-12-28T00:59:28.716Z,20.48
2022-12-28T01:01:55.128Z,16.23
2022-12-28T01:04:21.587Z,20.58
2022-12-28T01:06:47.878Z,22.67
2022-12-28T01:09:14.692Z,25.80
2022-12-28T01:11:41.047Z,16.65
2022-12-28T01:14:07.375Z,19.40
2022-12-28T01:16:34.814Z,17.50
2022-12-28T01:19:03.373Z,23.42
2022-12-28T01:21:30.989Z,25.13
2022-12-28T01:23:58.666Z,19.65
2022-12-28T01:26:25.927Z,24.90
2022-12-28T01:28:52.291Z,23.98
2022-12-28T01:31:19.730Z,18.42
2022-12-28T01:33:46.377Z,23.88
2022-12-28T01:36:20.161Z,24.23
2022-12-28T01:41:14.248Z,28.00
2022-12-28T01:43:41.976Z,28.40
2022-12-28T01:46:09.867Z,28.20
2022-12-28T01:48:39.405Z,22.98
2022-12-28T01:51:05.801Z,24.92
2022-12-28T01:53:32.175Z,26.33
2022-12-28T01:55:58.545Z,25.27
2022-12-28T01:58:26.083Z,25.42
2022-12-28T02:00:52.467Z,24.63
2022-12-28T02:03:21.905Z,23.50
2022-12-28T02:05:50.640Z,22.13
2022-12-28T02:08:20.165Z,24.52
2022-12-28T02:10:46.711Z,24.83
2022-12-28T02:13:15.764Z,27.92
2022-12-28T02:15:42.322Z,26.70
2022-12-28T02:18:09.232Z,27.33
2022-12-28T02:20:54.562Z,25.13
2022-12-28T02:23:31.299Z,29.15
2022-12-28T02:26:03.683Z,24.40
2022-12-28T02:28:48.340Z,24.95
2022-12-28T02:31:18.077Z,29.85
2022-12-28T02:33:50.571Z,29.27
2022-12-28T02:36:19.061Z,28.10
2022-12-28T02:38:48.987Z,27.90
2022-12-28T02:41:17.810Z,25.60
2022-12-28T02:43:44.698Z,28.55
2022-12-28T02:46:44.957Z,26.85
2022-12-28T02:49:37.493Z,29.60
2022-12-28T02:52:32.904Z,26.20
2022-12-28T02:55:37.299Z,20.52
2022-12-28T02:58:03.657Z,28.95
2022-12-28T03:00:37.443Z,27.80
2022-12-28T03:05:54.383Z,22.48
2022-12-28T03:08:31.554Z,28.17
2022-12-28T03:11:03.622Z,26.50
2022-12-28T03:13:42.939Z,26.38
2022-12-28T03:16:16.834Z,28.42
2022-12-28T03:19:04.865Z,26.08
2022-12-28T03:21:51.756Z,27.38
2022-12-28T03:24:38.541Z,26.98
2022-12-28T03:27:28.020Z,31.40
2022-12-28T03:30:17.954Z,29.13
2022-12-28T03:32:44.540Z,31.08
2022-12-28T03:35:11.044Z,28.40
2022-12-28T03:37:40.919Z,30.50
2022-12-28T03:40:31.219Z,28.63
2022-12-28T03:43:20.552Z,26.55
2022-12-28T03:45:57.625Z,33.60
2022-12-28T03:48:24.619Z,33.03
2022-12-28T03:50:51.309Z,32.20
2022-12-28T03:53:19.659Z,32.60
2022-12-28T03:55:46.087Z,32.33
2022-12-28T03:58:14.433Z,31.95
2022-12-28T04:00:41.400Z,34.25
2022-12-28T04:03:07.838Z,34.35
2022-12-28T04:05:34.901Z,32.60
2022-12-28T04:08:01.297Z,38.40
2022-12-28T04:10:27.951Z,32.40
2022-12-28T04:12:54.882Z,35.80
2022-12-28T04:15:29.277Z,37.13
2022-12-28T04:17:55.584Z,34.05
2022-12-28T04:20:22.887Z,34.17
2022-12-28T04:22:50.270Z,36.03
2022-12-28T04:25:16.596Z,34.85
2022-12-28T04:27:43.272Z,35.33
2022-12-28T04:30:25.864Z,36.83
2022-12-28T04:32:52.447Z,38.55
2022-12-28T04:35:18.857Z,36.47
2022-12-28T04:37:49.078Z,36.65
2022-12-28T04:40:15.349Z,37.00
2022-12-28T04:42:41.655Z,33.35
2022-12-28T04:45:08.316Z,33.22
2022-12-28T04:47:34.693Z,35.95
2022-12-28T04:50:00.974Z,33.25
2022-12-28T04:52:27.347Z,28.63
2022-12-28T04:54:53.723Z,31.23
2022-12-28T04:57:20.082Z,30.90
2022-12-28T04:59:46.410Z,33.92
2022-12-28T05:02:12.822Z,29.52
2022-12-28T05:04:39.225Z,32.17
2022-12-28T05:07:05.517Z,30.25
2022-12-28T05:09:31.879Z,29.95
2022-12-28T05:11:58.165Z,27.27
2022-12-28T05:14:24.544Z,30.40
2022-12-28T05:16:52.024Z,33.20
2022-12-28T05:19:18.350Z,32.13
2022-12-28T05:21:44.684Z,30.35
2022-12-28T05:24:10.975Z,30.38
2022-12-28T05:26:37.341Z,29.77
2022-12-28T05:29:03.729Z,29.77
2022-12-28T05:31:30.159Z,33.25
2022-12-28T05:33:56.539Z,29.45
2022-12-28T05:36:24.044Z,31.85
2022-12-28T05:38:50.588Z,30.08
2022-12-28T05:41:21.449Z,28.20
2022-12-28T05:43:47.852Z,28.23
2022-12-28T05:46:19.093Z,30.08
2022-12-28T05:48:45.671Z,28.20
2022-12-28T05:51:13.061Z,34.67
2022-12-28T05:53:39.839Z,29.88
2022-12-28T05:56:12.116Z,30.20
2022-12-28T05:58:40.681Z,26.98
2022-12-28T06:01:08.472Z,29.10
2022-12-28T06:03:35.645Z,29.05
2022-12-28T06:06:02.897Z,28.88
2022-12-28T06:08:29.219Z,27.67
2022-12-28T06:10:58.951Z,28.25
2022-12-28T06:13:25.308Z,32.20
2022-12-28T06:15:51.613Z,26.27
2022-12-28T06:18:17.957Z,32.33
2022-12-28T06:20:44.655Z,26.17
2022-12-28T06:23:10.943Z,28.75
2022-12-28T06:25:37.634Z,28.63
2022-12-28T06:28:04.075Z,38.45
2022-12-28T06:30:30.411Z,28.77
2022-12-28T06:32:57.255Z,29.98
2022-12-28T06:35:23.607Z,30.67
2022-12-28T06:37:49.965Z,30.80
2022-12-28T06:40:16.316Z,29.63
2022-12-28T06:42:43.361Z,27.48
2022-12-28T06:45:09.861Z,28.15
2022-12-28T06:47:37.636Z,48.35
2022-12-28T06:50:04.267Z,32.90
2022-12-28T06:52:30.574Z,25.35
2022-12-28T06:54:56.891Z,24.73
2022-12-28T06:57:23.276Z,26.08
2022-12-28T06:59:49.596Z,23.33
2022-12-28T07:02:16.118Z,27.55
2022-12-28T07:04:42.548Z,21.58
2022-12-28T07:07:09.075Z,19.17
2022-12-28T07:09:35.414Z,23.65
2022-12-28T07:12:01.810Z,25.58
2022-12-28T07:14:28.422Z,19.90
2022-12-28T07:16:54.735Z,23.40
2022-12-28T07:19:21.039Z,28.52
2022-12-28T07:21:49.457Z,28.40
2022-12-28T07:24:15.865Z,31.88
2022-12-28T07:26:42.252Z,30.08
2022-12-28T07:29:08.756Z,29.65
2022-12-28T07:31:41.944Z,26.48
2022-12-28T07:34:11.157Z,24.42
2022-12-28T07:36:37.524Z,23.48
2022-12-28T07:39:03.883Z,26.73
2022-12-28T07:41:32.794Z,25.23
2022-12-28T07:43:59.739Z,25.15
2022-12-28T07:46:27.734Z,27.17
2022-12-28T07:48:54.560Z,27.73
2022-12-28T07:51:25.333Z,25.35
2022-12-28T07:53:52.285Z,24.95
2022-12-28T07:56:19.105Z,25.40
2022-12-28T07:58:52.927Z,23.35
2022-12-28T08:03:46.003Z,23.13
2022-12-28T08:06:13.762Z,29.83
2022-12-28T08:08:44.125Z,26.67
2022-12-28T08:11:12.179Z,31.58
2022-12-28T08:13:40.748Z,30.73
2022-12-28T08:16:07.303Z,29.88
2022-12-28T08:18:33.669Z,29.67
2022-12-28T08:21:07.505Z,27.02
2022-12-28T08:26:10.457Z,25.42
2022-12-28T08:28:37.254Z,24.17
2022-12-28T08:31:07.370Z,22.27
2022-12-28T08:33:33.777Z,23.00
2022-12-28T08:36:01.254Z,22.02
2022-12-28T08:38:27.680Z,26.10
2022-12-28T08:40:57.954Z,22.85
2022-12-28T08:43:24.382Z,23.55
2022-12-28T08:45:58.384Z,22.20
2022-12-28T08:48:25.426Z,23.20
2022-12-28T08:50:51.995Z,21.50
2022-12-28T08:53:18.405Z,20.15
2022-12-28T08:55:44.761Z,20.25
2022-12-28T08:58:11.205Z,22.17
2022-12-28T09:00:37.603Z,18.58
2022-12-28T09:03:04.126Z,20.52
2022-12-28T09:05:35.915Z,20.15
2022-12-28T09:08:05.851Z,20.60
2022-12-28T09:10:32.121Z,18.83
2022-12-28T09:12:58.402Z,20.20
2022-12-28T09:15:24.993Z,21.77
2022-12-28T09:17:51.269Z,13.70
2022-12-28T09:20:17.730Z,19.38
2022-12-28T09:22:44.039Z,16.30
2022-12-28T09:25:10.380Z,15.45
2022-12-28T09:27:36.706Z,17.35
2022-12-28T09:30:03.501Z,11.05
2022-12-28T09:32:29.789Z,9.88
2022-12-28T09:34:56.087Z,9.77
2022-12-28T09:37:22.428Z,11.88
2022-12-28T09:39:48.862Z,11.73
2022-12-28T09:42:17.209Z,12.80
2022-12-28T09:44:53.668Z,14.02
2022-12-28T09:47:29.593Z,10.63
2022-12-28T09:50:14.537Z,10.15
2022-12-28T09:52:56.398Z,8.98
2022-12-28T09:55:22.773Z,9.32
2022-12-28T09:57:50.667Z,8.88
2022-12-28T10:00:28.598Z,8.40
2022-12-28T10:02:57.443Z,10.02
2022-12-28T10:05:23.962Z,7.25
2022-12-28T10:07:51.382Z,8.63
2022-12-28T10:10:19.068Z,5.55
2022-12-28T10:12:45.828Z,8.93
2022-12-28T10:15:13.059Z,10.25
2022-12-28T10:17:39.689Z,8.40
2022-12-28T10:20:08.052Z,9.70
2022-12-28T10:22:38.767Z,9.98
2022-12-28T10:25:31.542Z,7.57
2022-12-28T10:27:58.888Z,7.70
2022-12-28T10:30:27.181Z,7.13
2022-12-28T10:33:02.490Z,6.18
2022-12-28T10:35:29.897Z,10.07
2022-12-28T10:38:01.543Z,7.22
2022-12-28T10:40:29.233Z,6.25
2022-12-28T10:42:56.484Z,8.20
2022-12-28T10:45:25.434Z,10.93
2022-12-28T10:47:52.894Z,8.50
2022-12-28T10:50:38.344Z,10.68
2022-12-28T10:53:05.008Z,5.80
2022-12-28T10:55:33.395Z,9.20
2022-12-28T10:58:29.124Z,5.72
2022-12-28T11:00:58.621Z,9.35
2022-12-28T11:03:27.081Z,5.70
2022-12-28T11:06:12.452Z,8.77
2022-12-28T11:08:39.783Z,10.80
2022-12-28T11:11:06.724Z,6.57
2022-12-28T11:13:33.514Z,5.43
2022-12-28T11:16:00.016Z,5.82
2022-12-28T11:18:26.548Z,11.10
2022-12-28T11:20:53.457Z,6.30
2022-12-28T11:23:19.811Z,8.77
2022-12-28T11:25:46.156Z,7.20
2022-12-28T11:28:14.297Z,6.72
2022-12-28T11:30:40.558Z,7.55
2022-12-28T11:33:09.933Z,6.97
2022-12-28T11:35:38.599Z,8.48
2022-12-28T11:38:05.779Z,8.10
2022-12-28T11:40:44.313Z,9.13
2022-12-28T11:43:29.051Z,7.10
2022-12-28T11:45:56.602Z,7.13
2022-12-28T11:48:38.859Z,7.78
2022-12-28T11:51:06.235Z,7.82
2022-12-28T11:53:32.804Z,7.30
2022-12-28T11:56:08.479Z,7.40
2022-12-28T11:58:43.538Z,7.32
2022-12-28T12:01:11.183Z,7.03
2022-12-28T12:03:56.821Z,6.68
2022-12-28T12:06:42.213Z,6.22
2022-12-28T12:09:21.124Z,5.05
2022-12-28T12:11:48.888Z,6.28
2022-12-28T12:14:16.242Z,5.80
2022-12-28T12:16:50.812Z,6.45
2022-12-28T12:19:20.690Z,6.32
2022-12-28T12:21:55.322Z,7.28
2022-12-28T12:24:26.717Z,4.80
2022-12-28T12:26:59.791Z,5.47
2022-12-28T12:29:31.093Z,6.95
2022-12-28T12:32:03.762Z,6.65
2022-12-28T12:34:40.244Z,5.93
2022-12-28T12:37:29.921Z,6.13
2022-12-28T12:40:17.141Z,5.60
2022-12-28T12:42:47.255Z,6.70
2022-12-28T12:45:20.341Z,6.32
2022-12-28T12:48:05.823Z,4.50
2022-12-28T12:50:35.405Z,4.75
2022-12-28T12:53:14.935Z,6.45
2022-12-28T12:55:48.193Z,6.90
2022-12-28T12:58:26.559Z,5.80
2022-12-28T13:00:59.214Z,5.25
2022-12-28T13:04:01.495Z,5.53
2022-12-28T13:06:29.807Z,4.00
2022-12-28T13:09:04.729Z,4.93
2022-12-28T13:11:35.365Z,5.72
2022-12-28T13:14:02.120Z,8.27
2022-12-28T13:16:29.702Z,4.38
2022-12-28T13:18:57.845Z,6.30
2022-12-28T13:21:28.450Z,5.28
2022-12-28T13:23:55.085Z,5.28
2022-12-28T13:26:31.183Z,4.88
2022-12-28T13:28:57.683Z,6.53
2022-12-28T13:31:28.654Z,4.80
2022-12-28T13:33:56.130Z,4.40
2022-12-28T13:36:22.631Z,3.88
2022-12-28T13:38:59.721Z,4.07
2022-12-28T13:41:27.093Z,4.00
2022-12-28T13:44:09.225Z,4.30
2022-12-28T13:46:37.337Z,6.22
2022-12-28T13:49:04.308Z,4.90
2022-12-28T13:51:30.764Z,6.68
2022-12-28T13:53:59.702Z,5.40
2022-12-28T13:56:27.127Z,4.63
2022-12-28T13:58:59.389Z,4.55
2022-12-28T14:01:29.205Z,4.45
2022-12-28T14:04:25.688Z,4.78
2022-12-28T14:06:47.784Z,4.55
2022-12-28T14:09:14.954Z,2.95
2022-12-28T14:11:42.494Z,3.63
2022-12-28T14:14:10.183Z,6.05
2022-12-28T14:16:37.644Z,6.43
2022-12-28T14:19:05.738Z,3.85
2022-12-28T14:21:33.750Z,3.13
2022-12-28T14:24:09.039Z,3.75
2022-12-28T14:26:36.611Z,5.88
2022-12-28T14:29:09.166Z,5.57
2022-12-28T14:31:36.256Z,9.85
2022-12-28T14:34:04.589Z,2.90
2022-12-28T14:36:34.229Z,5.05
2022-12-28T14:39:04.715Z,5.97
2022-12-28T14:41:39.566Z,4.03
2022-12-28T14:44:13.302Z,4.28
2022-12-28T14:46:41.235Z,5.45
2022-12-28T14:49:26.463Z,7.65
2022-12-28T14:51:52.780Z,4.93
2022-12-28T14:54:24.021Z,7.22
2022-12-28T14:56:55.388Z,4.95
2022-12-28T14:59:42.056Z,7.85
2022-12-28T15:02:28.986Z,3.88
2022-12-28T15:07:41.814Z,3.97
2022-12-28T15:10:08.950Z,5.20
2022-12-28T15:12:35.627Z,5.10
2022-12-28T15:15:04.197Z,6.82
2022-12-28T15:17:33.509Z,4.78
2022-12-28T15:20:00.052Z,3.88
2022-12-28T15:22:26.384Z,6.57
2022-12-28T15:24:52.827Z,11.73
2022-12-28T15:27:19.180Z,5.63
2022-12-28T15:30:04.509Z,6.40
2022-12-28T15:32:32.291Z,7.03
2022-12-28T15:34:59.191Z,4.85
2022-12-28T15:37:25.704Z,7.53
2022-12-28T15:39:52.237Z,7.00
2022-12-28T15:42:18.621Z,5.80
2022-12-28T15:44:46.523Z,5.80
2022-12-28T15:47:13.429Z,7.90
2022-12-28T15:49:40.098Z,11.13
2022-12-28T15:52:07.007Z,6.90
2022-12-28T15:54:33.690Z,9.25
2022-12-28T15:57:00.275Z,4.72
2022-12-28T15:59:27.747Z,5.03
2022-12-28T16:01:55.421Z,3.45
2022-12-28T16:04:22.969Z,4.07
2022-12-28T16:06:50.124Z,3.00
2022-12-28T16:09:17.166Z,3.35
2022-12-28T16:11:45.665Z,3.20
2022-12-28T16:14:15.983Z,5.10
2022-12-28T16:16:43.918Z,2.80
2022-12-28T16:19:12.635Z,3.10
2022-12-28T16:21:40.068Z,8.55
2022-12-28T16:24:07.552Z,4.40
2022-12-28T16:26:34.738Z,3.55
2022-12-28T16:29:03.934Z,5.35
2022-12-28T16:31:36.278Z,3.63
2022-12-28T16:34:14.268Z,5.88
2022-12-28T16:36:41.932Z,2.85
2022-12-28T16:39:11.473Z,4.05
2022-12-28T16:41:39.252Z,3.17
2022-12-28T16:44:08.048Z,2.67
2022-12-28T16:46:35.516Z,4.03
2022-12-28T16:49:03.307Z,2.55
2022-12-28T16:51:30.921Z,3.60
2022-12-28T16:53:58.231Z,4.30
2022-12-28T16:56:25.781Z,3.72
2022-12-28T16:58:59.599Z,2.33
2022-12-28T17:01:27.778Z,5.63
2022-12-28T17:04:03.406Z,5.30
2022-12-28T17:06:31.832Z,2.75
2022-12-28T17:09:01.169Z,4.85
2022-12-28T17:11:28.649Z,4.93
2022-12-28T17:14:06.834Z,5.65
2022-12-28T17:16:34.636Z,4.65
2022-12-28T17:19:02.450Z,2.65
2022-12-28T17:21:30.444Z,7.05
2022-12-28T17:23:57.781Z,3.95
2022-12-28T17:26:25.609Z,4.35
2022-12-28T17:28:53.105Z,3.45
2022-12-28T17:31:21.524Z,3.78
2022-12-28T17:33:49.658Z,4.93
2022-12-28T17:36:16.429Z,5.13
2022-12-28T17:38:43.153Z,4.15
2022-12-28T17:41:11.610Z,3.35
2022-12-28T17:43:38.715Z,3.17
2022-12-28T17:46:05.670Z,3.78
2022-12-28T17:48:32.714Z,3.67
2022-12-28T17:50:59.657Z,2.38
2022-12-28T17:53:26.417Z,4.05
2022-12-28T17:55:53.635Z,4.93
2022-12-28T17:58:21.113Z,3.63
2022-12-28T18:00:52.824Z,3.97
2022-12-28T18:03:19.440Z,2.67
2022-12-28T18:05:48.199Z,4.00
2022-12-28T18:08:15.676Z,3.20
2022-12-28T18:10:43.146Z,5.47
2022-12-28T18:13:10.445Z,5.45
2022-12-28T18:15:37.851Z,3.30
2022-12-28T18:18:09.441Z,3.50
2022-12-28T18:20:36.628Z,4.75
2022-12-28T18:23:03.774Z,4.22
2022-12-28T18:25:31.078Z,4.88
2022-12-28T18:27:57.979Z,3.97
2022-12-28T18:30:24.468Z,4.57
2022-12-28T18:32:50.883Z,4.35
2022-12-28T18:35:17.358Z,4.30
2022-12-28T18:37:43.728Z,3.47
2022-12-28T18:40:10.331Z,4.63
2022-12-28T18:42:36.727Z,8.13
2022-12-28T18:45:03.370Z,4.78
2022-12-28T18:47:33.041Z,6.22
2022-12-28T18:50:00.126Z,8.02
2022-12-28T18:52:26.779Z,4.55
2022-12-28T18:54:53.521Z,4.90
2022-12-28T18:57:20.649Z,3.67
2022-12-28T18:59:47.364Z,4.10
2022-12-28T19:02:19.572Z,3.17
2022-12-28T19:04:47.989Z,4.55
2022-12-28T19:07:16.341Z,3.80
2022-12-28T19:10:06.540Z,4.78
2022-12-28T19:12:44.415Z,4.38
2022-12-28T19:15:11.060Z,4.70
2022-12-28T19:17:37.855Z,4.45
2022-12-28T19:20:05.221Z,4.78
2022-12-28T19:22:31.982Z,3.75
2022-12-28T19:24:58.404Z,3.80
2022-12-28T19:27:24.753Z,3.30
2022-12-28T19:29:51.157Z,3.95
2022-12-28T19:32:17.464Z,4.30
2022-12-28T19:34:43.927Z,2.63
2022-12-28T19:37:10.286Z,3.53
2022-12-28T19:39:36.804Z,4.30
2022-12-28T19:42:03.264Z,3.95
2022-12-28T19:44:29.719Z,4.75
2022-12-28T19:46:56.148Z,4.53
2022-12-28T19:49:22.507Z,4.55
2022-12-28T19:51:48.848Z,3.28
2022-12-28T19:54:15.331Z,3.55
2022-12-28T19:56:41.742Z,3.28
2022-12-28T19:59:08.185Z,3.33
2022-12-28T20:01:35.569Z,3.35
2022-12-28T20:04:07.139Z,3.25
2022-12-28T20:06:39.375Z,4.32
2022-12-28T20:09:05.699Z,3.45
2022-12-28T20:11:32.013Z,5.13
2022-12-28T20:14:02.163Z,4.95
2022-12-28T20:16:29.997Z,7.57
2022-12-28T20:18:56.491Z,5.00
2022-12-28T20:21:23.823Z,4.28
2022-12-28T20:23:50.979Z,5.53
2022-12-28T20:26:17.768Z,4.50
2022-12-28T20:28:44.517Z,3.92
2022-12-28T20:31:12.654Z,6.35
2022-12-28T20:33:39.637Z,3.15
2022-12-28T20:36:22.981Z,4.03
2022-12-28T20:38:49.559Z,3.87
2022-12-28T20:41:37.673Z,3.55
2022-12-28T20:44:05.610Z,6.03
2022-12-28T20:46:32.378Z,3.55
2022-12-28T20:48:59.061Z,4.55
2022-12-28T20:51:25.688Z,5.18
2022-12-28T20:53:52.009Z,7.20
2022-12-28T20:56:18.448Z,4.35
2022-12-28T20:58:44.771Z,3.10
2022-12-28T21:01:12.501Z,6.65
2022-12-28T21:03:39.264Z,3.60
2022-12-28T21:06:06.247Z,3.00
2022-12-28T21:08:33.107Z,4.15
2022-12-28T21:10:59.515Z,4.20
2022-12-28T21:13:26.353Z,4.03
2022-12-28T21:15:52.757Z,4.63
2022-12-28T21:18:36.792Z,3.00
2022-12-28T21:21:03.449Z,5.38
2022-12-28T21:23:30.371Z,4.50
2022-12-28T21:26:00.891Z,5.38
2022-12-28T21:28:27.368Z,3.30
2022-12-28T21:30:54.591Z,4.35
2022-12-28T21:33:21.049Z,4.70
2022-12-28T21:35:57.858Z,4.85
2022-12-28T21:38:25.209Z,5.70
2022-12-28T21:41:02.171Z,4.25
2022-12-28T21:43:29.174Z,4.15
2022-12-28T21:46:02.273Z,4.55
2022-12-28T21:48:33.568Z,4.25
2022-12-28T21:51:04.774Z,5.68
2022-12-28T21:53:31.277Z,5.03
2022-12-28T21:55:57.600Z,5.22
2022-12-28T21:58:24.010Z,5.65
2022-12-28T22:01:09.181Z,6.35
2022-12-28T22:03:54.410Z,4.80
2022-12-28T22:06:20.714Z,5.88
2022-12-28T22:09:05.899Z,4.00
2022-12-28T22:11:50.926Z,5.88
2022-12-28T22:14:17.250Z,5.13
2022-12-28T22:16:43.645Z,5.80
2022-12-28T22:19:10.002Z,5.68
2022-12-28T22:21:36.376Z,6.55
2022-12-28T22:24:02.791Z,5.88
2022-12-28T22:26:29.079Z,5.22
2022-12-28T22:28:55.410Z,5.30
2022-12-28T22:31:21.865Z,4.90
2022-12-28T22:33:48.254Z,5.18
2022-12-28T22:36:16.114Z,7.10
2022-12-28T22:38:42.534Z,6.82
2022-12-28T22:41:09.190Z,7.10
2022-12-28T22:43:35.535Z,4.47
2022-12-28T22:46:06.219Z,4.75
2022-12-28T22:48:32.827Z,5.63
2022-12-28T22:51:03.453Z,5.50
2022-12-28T22:53:29.883Z,6.22
2022-12-28T22:55:57.609Z,5.57
2022-12-28T22:58:23.959Z,7.18
2022-12-28T23:00:50.387Z,4.45
2022-12-28T23:03:16.730Z,6.35
2022-12-28T23:05:51.238Z,6.38
2022-12-28T23:08:17.659Z,4.50
2022-12-28T23:10:57.836Z,4.18
2022-12-28T23:13:24.308Z,4.93
2022-12-28T23:16:01.240Z,3.85
2022-12-28T23:18:46.379Z,6.57
2022-12-28T23:21:41.434Z,5.03
2022-12-28T23:24:30.022Z,7.05
2022-12-28T23:27:14.854Z,6.03
2022-12-28T23:29:41.167Z,5.35
2022-12-28T23:32:07.526Z,4.13
2022-12-28T23:34:33.910Z,4.53
2022-12-28T23:37:00.210Z,4.32
2022-12-28T23:39:26.523Z,4.30
2022-12-28T23:41:52.859Z,7.05
2022-12-28T23:44:23.994Z,7.63
2022-12-28T23:46:53.895Z,8.20
2022-12-28T23:49:24.402Z,5.50
2022-12-28T23:51:50.802Z,4.07
2022-12-28T23:54:18.141Z,5.53
2022-12-28T23:56:44.888Z,4.35
2022-12-28T23:59:11.566Z,4.47
